.
WxDataArchive / Data Records for 2012-01-17
2012-01-16 January 2012 2012-01-18

Data Records for Tuesday, 17 January 2012

Time	Temp	Chill	HIndex	Humid	Dewpt	 Wind 	HiWind	WindDir	Rain 	Barom 
-----	----	-----	------	-----	-----	------	------	-------	-----	----- 
00:00	48.6	48.6	48.6	94	47.0	1	7	248	0.00	29.762 
00:05	48.9	48.9	48.9	94	47.2	1	7	248	0.00	29.762 
00:10	49.1	49.1	49.1	94	47.4	1	4	225	0.00	29.762 
00:15	49.1	49.1	49.1	94	47.4	1	5	248	0.00	29.753 
00:20	49.1	49.1	49.1	94	47.4	1	5	292	0.00	29.753 
00:25	49.1	49.1	49.1	94	47.4	1	4	68	0.00	29.753 
00:30	49.1	49.1	49.1	94	47.4	1	3	270	0.00	29.745 
00:35	49.2	49.2	49.2	94	47.5	1	4	248	0.00	29.745 
00:40	49.2	49.2	49.2	94	47.5	1	4	248	0.00	29.745 
00:45	49.4	49.4	49.4	94	47.7	1	4	248	0.00	29.733 
00:50	49.4	49.4	49.4	94	47.7	1	3	225	0.00	29.733 
00:55	49.5	49.5	49.5	94	47.8	1	4	248	0.00	29.733 
01:00	49.6	49.6	49.6	94	47.9	1	3	292	0.00	29.727 
01:05	49.8	49.8	49.8	94	48.1	1	8	90	0.00	29.727 
01:10	49.8	49.8	49.8	94	48.1	1	5	45	0.00	29.727 
01:15	49.9	49.9	49.9	94	48.2	1	4	248	0.00	29.715 
01:20	50.1	50.1	50.1	94	48.4	1	5	248	0.00	29.715 
01:25	50.4	50.4	50.4	94	48.7	2	5	248	0.00	29.715 
01:30	50.7	50.7	50.7	94	49.0	2	6	248	0.00	29.709 
01:35	50.8	50.8	50.8	94	49.1	2	6	248	0.00	29.709 
01:40	51.0	51.0	51.0	94	49.3	1	5	248	0.00	29.709 
01:45	51.1	51.1	51.1	94	49.4	2	5	225	0.00	29.702 
01:50	51.3	51.3	51.3	94	49.6	2	7	248	0.00	29.702 
01:55	51.4	51.4	51.4	94	49.7	2	5	248	0.00	29.702 
02:00	51.6	51.6	51.6	94	49.9	1	7	248	0.00	29.692 
02:05	51.4	51.4	51.4	93	49.4	1	5	248	0.00	29.692 
02:10	51.4	51.4	51.4	93	49.4	1	3	248	0.01	29.692 
02:15	51.4	51.4	51.4	93	49.4	2	5	248	0.00	29.687 
02:20	51.4	51.4	51.4	94	49.7	2	6	248	0.00	29.687 
02:25	51.6	51.6	51.6	94	49.9	3	9	248	0.01	29.687 
02:30	51.6	51.6	51.6	94	49.9	3	12	248	0.00	29.680 
02:35	51.6	51.6	51.6	94	49.9	3	9	248	0.00	29.680 
02:40	51.6	51.6	51.6	94	49.9	2	6	248	0.02	29.680 
02:45	51.6	51.6	51.6	94	49.9	2	6	248	0.01	29.664 
02:50	52.2	52.2	52.2	94	50.5	3	8	248	0.01	29.664 
02:55	52.5	52.5	52.5	94	50.8	3	6	248	0.00	29.664 
03:00	52.6	52.6	52.6	94	50.9	2	5	248	0.00	29.665 
03:05	52.6	52.6	52.6	94	50.9	2	11	248	0.00	29.665 
03:10	52.5	52.5	52.5	94	50.8	1	3	248	0.00	29.665 
03:15	52.5	52.5	52.5	94	50.8	1	4	248	0.00	29.660 
03:20	52.3	52.3	52.3	94	50.6	0	3	248	0.00	29.660 
03:25	52.3	52.3	52.3	94	50.6	0	4	248	0.01	29.660 
03:30	52.2	52.2	52.2	94	50.5	0	1	248	0.00	29.647 
03:35	52.0	52.0	52.0	94	50.3	0	1	248	0.00	29.647 
03:40	51.7	51.7	51.7	94	50.0	0	1	248	0.00	29.647 
03:45	51.7	51.7	51.7	94	50.0	1	2	248	0.00	29.639 
03:50	51.6	51.6	51.6	94	49.9	0	1	248	0.00	29.639 
03:55	51.7	51.7	51.7	94	50.0	1	4	90	0.00	29.639 
04:00	51.7	51.7	51.7	95	50.3	1	3	90	0.00	29.629 
04:05	51.9	51.9	51.9	95	50.5	1	3	90	0.00	29.629 
04:10	51.9	51.9	51.9	95	50.5	2	4	90	0.00	29.629 
04:15	51.9	51.9	51.9	95	50.5	2	3	112	0.00	29.616 
04:20	51.7	51.7	51.7	94	50.0	1	4	90	0.00	29.616 
04:25	51.6	51.6	51.6	94	49.9	1	4	135	0.00	29.616 
04:30	51.4	51.4	51.4	94	49.7	1	3	135	0.00	29.602 
04:35	51.3	51.3	51.3	95	49.9	1	3	135	0.01	29.602 
04:40	51.3	51.3	51.3	95	49.9	1	3	135	0.02	29.602 
04:45	51.1	51.1	51.1	95	49.7	0	2	112	0.02	29.587 
04:50	51.1	51.1	51.1	95	49.7	0	2	112	0.00	29.587 
04:55	51.1	51.1	51.1	95	49.7	0	2	180	0.01	29.587 
05:00	51.1	51.1	51.1	95	49.7	0	3	248	0.00	29.589 
05:05	51.3	51.3	51.3	95	49.9	2	4	338	0.01	29.589 
05:10	51.4	51.4	51.4	95	50.0	1	3	112	0.02	29.589 
05:15	51.6	51.6	51.6	95	50.2	1	3	112	0.00	29.580 
05:20	51.7	51.7	51.7	96	50.6	0	1	338	0.02	29.580 
05:25	51.9	51.9	51.9	96	50.8	1	3	270	0.02	29.580 
05:30	51.9	51.9	51.9	96	50.8	0	2	270	0.02	29.573 
05:35	52.0	52.0	52.0	96	50.9	0	1	270	0.00	29.573 
05:40	52.2	52.2	52.2	96	51.1	0	3	270	0.01	29.573 
05:45	52.2	52.2	52.2	96	51.1	0	3	270	0.01	29.570 
05:50	52.2	52.2	52.2	96	51.1	1	2	270	0.02	29.570 
05:55	52.2	52.2	52.2	96	51.1	0	2	292	0.01	29.570 
06:00	52.2	52.2	52.2	96	51.1	1	3	270	0.01	29.566 
06:05	52.2	52.2	52.2	96	51.1	2	6	248	0.02	29.566 
06:10	52.2	52.2	52.2	96	51.1	1	5	248	0.02	29.566 
06:15	52.2	52.2	52.2	96	51.1	1	3	248	0.01	29.566 
06:20	52.2	52.2	52.2	96	51.1	1	7	248	0.02	29.566 
06:25	52.2	52.2	52.2	96	51.1	1	6	248	0.01	29.566 
06:30	52.2	52.2	52.2	96	51.1	2	6	248	0.01	29.563 
06:35	52.2	52.2	52.2	96	51.1	1	4	248	0.01	29.563 
06:40	52.2	52.2	52.2	96	51.1	2	6	248	0.02	29.563 
06:45	52.0	52.0	52.0	96	50.9	2	6	248	0.01	29.587 
06:50	52.0	52.0	52.0	96	50.9	2	5	248	0.01	29.587 
06:55	52.0	52.0	52.0	96	50.9	3	11	248	0.02	29.587 
07:00	52.0	52.0	52.0	96	50.9	2	7	248	0.02	29.581 
07:05	51.9	51.9	51.9	96	50.8	2	6	248	0.01	29.581 
07:10	51.9	51.9	51.9	96	50.8	3	9	248	0.01	29.581 
07:15	51.7	51.7	51.7	96	50.6	1	3	248	0.00	29.576 
07:20	51.6	51.6	51.6	96	50.5	2	6	248	0.01	29.576 
07:25	51.4	51.4	51.4	96	50.3	1	5	248	0.00	29.576 
07:30	51.3	51.3	51.3	96	50.2	1	5	248	0.00	29.573 
07:35	51.1	51.1	51.1	96	50.0	1	3	248	0.01	29.573 
07:40	51.1	51.1	51.1	96	50.0	1	4	248	0.00	29.573 
07:45	51.0	51.0	51.0	96	49.9	0	1	248	0.00	29.547 
07:50	50.7	50.7	50.7	96	49.6	0	1	248	0.00	29.547 
07:55	50.5	50.5	50.5	96	49.4	0	2	248	0.00	29.547 
08:00	50.4	50.4	50.4	96	49.3	0	2	248	0.00	29.565 
08:05	50.2	50.2	50.2	96	49.1	0	2	248	0.00	29.565 
08:10	50.1	50.1	50.1	96	49.0	0	2	248	0.00	29.565 
08:15	49.8	49.8	49.8	96	48.7	0	2	248	0.00	29.555 
08:20	49.8	49.8	49.8	96	48.7	0	3	248	0.00	29.555 
08:25	49.5	49.5	49.5	96	48.4	0	1	248	0.00	29.555 
08:30	49.4	49.4	49.4	96	48.3	0	1	248	0.00	29.550 
08:35	49.2	49.2	49.2	96	48.1	0	4	248	0.00	29.550 
08:40	49.1	49.1	49.1	96	48.0	1	3	248	0.00	29.550 
08:45	49.1	49.1	49.1	96	48.0	1	3	248	0.00	29.549 
08:50	48.9	48.9	48.9	96	47.8	1	5	248	0.00	29.549 
08:55	48.9	48.9	48.9	96	47.8	1	4	270	0.00	29.549 
09:00	48.9	48.9	48.9	96	47.8	1	4	270	0.00	29.551 
09:05	48.9	48.9	48.9	96	47.8	0	4	248	0.00	29.551 
09:10	48.9	48.9	48.9	96	47.8	1	4	248	0.00	29.551 
09:15	48.9	48.9	48.9	96	47.8	1	5	225	0.00	29.551 
09:20	48.9	48.9	48.9	96	47.8	1	3	225	0.00	29.551 
09:25	48.9	48.9	48.9	96	47.8	1	4	248	0.00	29.551 
09:30	48.9	48.9	48.9	96	47.8	1	3	248	0.00	29.540 
09:35	48.9	48.9	48.9	96	47.8	1	4	248	0.00	29.540 
09:40	49.1	49.1	49.1	96	48.0	1	4	315	0.00	29.540 
09:45	49.1	49.1	49.1	96	48.0	1	4	248	0.00	29.541 
09:50	49.1	49.1	49.1	96	48.0	1	4	225	0.00	29.541 
09:55	49.2	49.2	49.2	96	48.1	1	4	22	0.00	29.541 
10:00	49.4	49.4	49.4	96	48.3	1	3	292	0.00	29.530 
10:05	49.5	49.5	49.5	96	48.4	0	3	315	0.00	29.530 
10:10	49.6	49.6	49.6	96	48.5	1	4	248	0.00	29.530 
10:15	49.6	49.6	49.6	96	48.5	1	4	248	0.00	29.536 
10:20	49.8	49.8	49.8	96	48.7	2	7	90	0.00	29.536 
10:25	49.8	49.8	49.8	96	48.7	1	5	45	0.00	29.536 
10:30	49.9	49.9	49.9	96	48.8	1	4	248	0.00	29.502 
10:35	50.1	50.1	50.1	96	49.0	1	4	248	0.00	29.502 
10:40	50.1	50.1	50.1	96	49.0	1	4	248	0.00	29.502 
10:45	50.2	50.2	50.2	96	49.1	2	6	248	0.00	29.505 
10:50	50.4	50.4	50.4	96	49.3	2	5	248	0.00	29.505 
10:55	50.7	50.7	50.7	96	49.6	1	3	270	0.00	29.505 
11:00	50.8	50.8	50.8	96	49.7	2	5	225	0.00	29.499 
11:05	51.0	51.0	51.0	96	49.9	2	5	248	0.00	29.499 
11:10	51.0	51.0	51.0	96	49.9	2	6	248	0.00	29.499 
11:15	51.1	51.1	51.1	96	50.0	2	6	248	0.00	29.494 
11:20	51.3	51.3	51.3	96	50.2	1	4	248	0.00	29.494 
11:25	51.4	51.4	51.4	96	50.3	2	6	248	0.00	29.494 
11:30	51.6	51.6	51.6	96	50.5	3	7	248	0.00	29.489 
11:35	51.7	51.7	51.7	96	50.6	3	7	248	0.00	29.489 
11:40	51.9	51.9	51.9	96	50.8	3	7	248	0.00	29.489 
11:45	52.0	52.0	52.0	96	50.9	4	12	248	0.00	29.484 
11:50	52.2	52.2	52.2	96	51.1	3	7	248	0.00	29.484 
11:55	52.3	52.3	52.3	95	50.9	3	8	248	0.00	29.484 
12:00	52.5	52.5	52.5	95	51.1	2	6	248	0.00	29.468 
12:05	52.6	52.6	52.6	95	51.2	3	6	248	0.00	29.468 
12:10	52.8	52.8	52.8	94	51.1	4	14	248	0.00	29.468 
12:15	52.9	52.9	52.9	94	51.2	3	11	248	0.00	29.467 
12:20	52.8	52.8	52.8	94	51.1	3	7	248	0.01	29.467 
12:25	52.6	52.6	52.6	93	50.6	4	14	248	0.01	29.467 
12:30	51.7	51.7	51.7	93	49.7	7	14	270	0.00	29.481 
12:35	51.0	51.0	51.0	92	48.8	7	15	270	0.01	29.481 
12:40	50.4	50.4	50.4	92	48.2	7	15	270	0.00	29.481 
12:45	50.4	50.4	50.4	91	47.9	6	15	270	0.00	29.476 
12:50	50.1	50.1	50.1	90	47.3	7	15	270	0.00	29.476 
12:55	49.8	47.4	49.8	89	46.7	6	13	270	0.00	29.476 
13:00	49.6	47.2	49.6	89	46.5	6	13	270	0.00	29.486 
13:05	49.2	46.2	49.2	88	45.8	7	14	270	0.00	29.486 
13:10	49.1	46.6	49.1	87	45.4	6	13	270	0.00	29.486 
13:15	48.8	45.7	48.8	86	44.8	7	19	270	0.00	29.497 
13:20	48.0	43.9	48.0	84	43.4	9	17	270	0.00	29.497 
13:25	47.6	44.8	47.6	85	43.3	6	13	270	0.00	29.497 
13:30	47.1	44.8	47.1	85	42.8	5	12	270	0.00	29.517 
13:35	46.5	43.0	46.5	84	41.9	7	15	270	0.00	29.517 
13:40	45.8	43.3	45.8	85	41.6	5	12	270	0.00	29.517 
13:45	45.1	42.5	45.1	86	41.2	5	9	248	0.00	29.539 
13:50	44.3	40.9	44.3	87	40.7	6	14	270	0.00	29.539 
13:55	43.3	38.6	43.3	86	39.4	8	16	270	0.00	29.539 
14:00	42.8	38.5	42.8	87	39.2	7	11	270	0.00	29.569 
14:05	42.1	38.3	42.1	87	38.5	6	10	270	0.00	29.569 
14:10	41.6	37.7	41.6	87	38.0	6	11	270	0.00	29.569 
14:15	41.1	37.1	41.1	87	37.5	6	12	270	0.00	29.581 
14:20	40.6	36.5	40.6	86	36.7	6	12	270	0.00	29.581 
14:25	40.1	35.3	40.1	86	36.3	7	12	270	0.00	29.581 
14:30	39.5	35.2	39.5	86	35.7	6	13	270	0.00	29.606 
14:35	38.8	34.3	38.8	82	33.8	6	14	270	0.00	29.606 
14:40	38.5	33.3	38.5	85	34.4	7	12	270	0.00	29.606 
14:45	38.3	33.7	38.3	84	33.9	6	12	270	0.00	29.624 
14:50	38.3	33.7	38.3	83	33.6	6	14	270	0.00	29.624 
14:55	38.3	34.5	38.3	83	33.6	5	11	270	0.00	29.624 
15:00	38.2	33.6	38.2	82	33.2	6	11	270	0.00	29.640 
15:05	37.9	34.0	37.9	82	32.9	5	10	270	0.00	29.640 
15:10	37.9	34.9	37.9	82	32.9	4	6	270	0.00	29.640 
15:15	37.8	33.9	37.8	81	32.5	5	10	270	0.00	29.659 
15:20	37.6	33.7	37.6	80	32.0	5	11	270	0.00	29.659 
15:25	37.6	33.7	37.6	79	31.7	5	10	270	0.00	29.659 
15:30	37.5	32.8	37.5	78	31.3	6	12	270	0.00	29.680 
15:35	37.3	31.9	37.3	77	30.8	7	13	270	0.00	29.680 
15:40	37.2	33.2	37.2	77	30.7	5	14	270	0.00	29.680 
15:45	37.0	32.9	37.0	77	30.5	5	10	292	0.00	29.702 
15:50	37.0	32.9	37.0	78	30.8	5	10	270	0.00	29.702 
15:55	36.9	33.7	36.9	78	30.7	4	7	270	0.00	29.702 
16:00	36.9	33.7	36.9	79	31.0	4	9	270	0.00	29.722 
16:05	36.5	32.4	36.5	79	30.6	5	10	270	0.00	29.722 
16:10	36.2	32.0	36.2	80	30.6	5	10	270	0.00	29.722 
16:15	35.8	31.5	35.8	80	30.2	5	12	270	0.00	29.739 
16:20	35.6	31.3	35.6	79	29.7	5	10	270	0.00	29.739 
16:25	35.5	31.2	35.5	78	29.3	5	11	270	0.00	29.739 
16:30	35.3	31.9	35.3	78	29.1	4	9	270	0.00	29.764 
16:35	35.3	35.3	35.3	77	28.8	3	7	270	0.00	29.764 
16:40	35.2	31.8	35.2	78	29.0	4	10	270	0.00	29.764 
16:45	35.0	30.6	35.0	77	28.5	5	14	270	0.00	29.783 
16:50	35.0	31.5	35.0	77	28.5	4	7	270	0.00	29.783 
16:55	34.9	31.4	34.9	78	28.7	4	10	270	0.00	29.783 
17:00	34.7	31.2	34.7	79	28.9	4	9	270	0.00	29.798 
17:05	34.6	34.6	34.6	79	28.8	3	7	270	0.00	29.798 
17:10	34.6	31.1	34.6	79	28.8	4	9	270	0.00	29.798 
17:15	34.3	30.7	34.3	79	28.5	4	9	270	0.00	29.813 
17:20	34.3	30.7	34.3	79	28.5	4	10	270	0.00	29.813 
17:25	34.1	30.5	34.1	80	28.6	4	9	315	0.00	29.813 
17:30	34.0	30.4	34.0	80	28.5	4	10	248	0.00	29.824 
17:35	33.8	30.2	33.8	80	28.3	4	7	270	0.00	29.824 
17:40	33.8	30.2	33.8	80	28.3	4	9	270	0.00	29.824 
17:45	33.7	33.7	33.7	81	28.5	3	7	292	0.00	29.833 
17:50	33.5	33.5	33.5	82	28.6	3	6	270	0.00	29.833 
17:55	33.4	33.4	33.4	83	28.8	3	7	270	0.00	29.833 
18:00	33.2	29.5	33.2	83	28.6	4	8	270	0.00	29.846 
18:05	33.1	29.3	33.1	82	28.2	4	11	270	0.00	29.846 
18:10	32.9	29.1	32.9	81	27.7	4	9	270	0.00	29.846 
18:15	32.8	29.0	32.8	80	27.3	4	10	270	0.00	29.862 
18:20	32.7	28.9	32.7	79	26.9	4	10	270	0.00	29.862 
18:25	32.7	28.9	32.7	79	26.9	4	9	270	0.00	29.862 
18:30	32.5	28.7	32.5	79	26.7	4	12	292	0.00	29.877 
18:35	32.4	27.5	32.4	80	26.9	5	9	270	0.00	29.877 
18:40	32.1	32.1	32.1	81	26.9	3	7	270	0.00	29.877 
18:45	31.9	28.0	31.9	81	26.7	4	7	270	0.00	29.889 
18:50	31.6	27.6	31.6	80	26.2	4	7	270	0.00	29.889 
18:55	31.5	27.5	31.5	80	26.1	4	8	270	0.00	29.889 
19:00	31.3	31.3	31.3	81	26.2	3	6	270	0.00	29.902 
19:05	31.2	27.2	31.2	81	26.1	4	11	270	0.00	29.902 
19:10	31.0	26.9	31.0	80	25.6	4	9	270	0.00	29.902 
19:15	30.9	30.9	30.9	80	25.5	3	6	270	0.00	29.918 
19:20	30.7	30.7	30.7	79	25.0	3	9	270	0.00	29.918 
19:25	30.6	26.5	30.6	78	24.6	4	10	315	0.00	29.918 
19:30	30.6	26.5	30.6	78	24.6	4	10	270	0.00	29.930 
19:35	30.7	26.6	30.7	78	24.7	4	7	270	0.00	29.930 
19:40	30.7	26.6	30.7	78	24.7	4	7	270	0.00	29.930 
19:45	30.7	30.7	30.7	77	24.4	3	12	292	0.00	29.940 
19:50	30.6	25.4	30.6	76	24.0	5	11	292	0.00	29.940 
19:55	30.4	26.2	30.4	77	24.1	4	10	292	0.00	29.940 
20:00	30.4	30.4	30.4	77	24.1	3	6	292	0.00	29.948 
20:05	30.3	30.3	30.3	77	24.0	3	5	292	0.00	29.948 
20:10	30.3	30.3	30.3	78	24.3	3	9	270	0.00	29.948 
20:15	30.1	30.1	30.1	78	24.1	3	7	270	0.00	29.963 
20:20	30.1	30.1	30.1	77	23.8	3	6	270	0.00	29.963 
20:25	30.1	30.1	30.1	77	23.8	3	6	270	0.00	29.963 
20:30	30.0	30.0	30.0	77	23.7	3	6	270	0.00	29.976 
20:35	29.8	25.5	29.8	78	23.8	4	7	270	0.00	29.976 
20:40	29.5	29.5	29.5	80	24.1	3	7	270	0.00	29.976 
20:45	29.5	24.1	29.5	79	23.8	5	10	270	0.00	29.984 
20:50	29.4	25.1	29.4	77	23.1	4	7	270	0.00	29.984 
20:55	29.5	24.1	29.5	76	22.9	5	11	270	0.00	29.984 
21:00	29.5	25.2	29.5	76	22.9	4	12	270	0.00	29.997 
21:05	29.4	24.0	29.4	75	22.5	5	11	270	0.00	29.997 
21:10	29.3	23.9	29.3	75	22.4	5	11	270	0.00	29.997 
21:15	29.0	24.6	29.0	74	21.8	4	13	315	0.00	30.009 
21:20	29.0	24.6	29.0	73	21.4	4	7	292	0.00	30.009 
21:25	28.8	24.4	28.8	73	21.3	4	10	270	0.00	30.009 
21:30	28.7	24.3	28.7	73	21.2	4	7	315	0.00	30.015 
21:35	28.7	24.3	28.7	73	21.2	4	9	315	0.00	30.015 
21:40	28.5	28.5	28.5	73	21.0	3	7	315	0.00	30.015 
21:45	28.5	28.5	28.5	73	21.0	3	6	270	0.00	30.026 
21:50	28.4	28.4	28.4	73	20.9	3	8	315	0.00	30.026 
21:55	28.2	23.7	28.2	73	20.7	4	7	292	0.00	30.026 
22:00	28.1	23.6	28.1	73	20.6	4	10	270	0.00	30.035 
22:05	28.1	28.1	28.1	73	20.6	3	7	270	0.00	30.035 
22:10	27.9	27.9	27.9	73	20.4	3	8	270	0.00	30.035 
22:15	27.8	23.2	27.8	73	20.3	4	7	270	0.00	30.042 
22:20	27.6	27.6	27.6	73	20.1	3	7	270	0.00	30.042 
22:25	27.6	27.6	27.6	73	20.1	3	7	270	0.00	30.042 
22:30	27.5	27.5	27.5	73	20.0	3	7	315	0.00	30.048 
22:35	27.5	27.5	27.5	73	20.0	2	5	315	0.00	30.048 
22:40	27.3	27.3	27.3	73	19.8	3	9	315	0.00	30.048 
22:45	27.2	27.2	27.2	71	19.1	3	6	270	0.00	30.056 
22:50	27.3	27.3	27.3	72	19.5	2	6	270	0.00	30.056 
22:55	27.2	27.2	27.2	74	20.0	2	5	270	0.00	30.056 
23:00	27.2	27.2	27.2	75	20.3	1	3	292	0.00	30.067 
23:05	27.2	27.2	27.2	76	20.7	2	5	0	0.00	30.067 
23:10	27.0	27.0	27.0	75	20.2	2	4	270	0.00	30.067 
23:15	27.0	27.0	27.0	74	19.8	2	5	270	0.00	30.073 
23:20	27.0	27.0	27.0	74	19.8	2	5	338	0.00	30.073 
23:25	27.0	27.0	27.0	75	20.2	2	6	270	0.00	30.073 
23:30	27.2	27.2	27.2	75	20.3	2	5	270	0.00	30.084 
23:35	27.2	27.2	27.2	75	20.3	2	5	315	0.00	30.084 
23:40	27.2	27.2	27.2	74	20.0	2	4	270	0.00	30.084 
23:45	27.2	27.2	27.2	74	20.0	1	4	270	0.00	30.089 
23:50	27.2	27.2	27.2	74	20.0	2	9	270	0.00	30.089 
23:55	27.2	27.2	27.2	74	20.0	2	4	270	0.00	30.089 

CoCoRaHS
IN-AL-39
A2 Web Hosting
Creative Commons License
GoDaddy
search engine by freefind advanced

loaded 2018-11-18 11:22:03 • last modified 2010-11-18 10:43:29
Privacy PolicyDisclaimer
• wx.awcolley.com is powered by PmWiki v.2002016 •
• all content (unless otherwise noted) © 2018 A W Colley